createdAt,value
2022-12-05T00:01:53.205Z,17.73
2022-12-05T00:05:54.663Z,17.40
2022-12-05T00:09:57.661Z,17.57
2022-12-05T00:14:00.623Z,17.03
2022-12-05T00:18:01.984Z,17.53
2022-12-05T00:22:03.463Z,18.23
2022-12-05T00:26:06.791Z,17.53
2022-12-05T00:30:08.849Z,17.47
2022-12-05T00:34:10.519Z,17.10
2022-12-05T00:38:11.957Z,17.60
2022-12-05T00:42:14.750Z,17.90
2022-12-05T00:46:18.062Z,17.83
2022-12-05T00:50:19.630Z,18.37
2022-12-05T00:54:21.097Z,17.20
2022-12-05T00:58:23.896Z,16.73
2022-12-05T01:02:25.295Z,17.87
2022-12-05T01:06:27.843Z,17.50
2022-12-05T01:10:29.241Z,17.87
2022-12-05T01:14:32.080Z,16.70
2022-12-05T01:18:33.543Z,16.87
2022-12-05T01:22:34.923Z,16.57
2022-12-05T01:26:36.884Z,16.53
2022-12-05T01:30:40.548Z,15.47
2022-12-05T01:34:41.950Z,16.23
2022-12-05T01:38:43.574Z,16.33
2022-12-05T01:42:44.978Z,16.57
2022-12-05T01:46:49.267Z,15.43
2022-12-05T01:50:51.065Z,15.63
2022-12-05T01:54:56.568Z,16.13
2022-12-05T01:58:59.424Z,15.07
2022-12-05T02:03:06.745Z,15.00
2022-12-05T02:07:08.126Z,16.10
2022-12-05T02:11:09.796Z,15.10
2022-12-05T02:15:36.058Z,16.00
2022-12-05T02:20:00.234Z,14.73
2022-12-05T02:24:50.192Z,15.60
2022-12-05T02:29:10.892Z,15.63
2022-12-05T02:33:21.067Z,15.97
2022-12-05T02:37:29.596Z,16.20
2022-12-05T02:41:34.544Z,14.60
2022-12-05T02:45:38.544Z,14.23
2022-12-05T02:49:42.835Z,14.53
2022-12-05T02:53:45.490Z,14.53
2022-12-05T02:57:52.428Z,14.13
2022-12-05T03:01:53.927Z,14.60
2022-12-05T03:06:02.870Z,14.63
2022-12-05T03:10:07.865Z,14.07
2022-12-05T03:14:16.500Z,14.30
2022-12-05T03:18:24.025Z,14.73
2022-12-05T03:22:32.219Z,13.93
2022-12-05T03:26:44.571Z,14.63
2022-12-05T03:30:51.971Z,13.00
2022-12-05T03:35:03.468Z,13.70
2022-12-05T03:39:13.076Z,14.30
2022-12-05T03:43:22.436Z,13.17
2022-12-05T03:47:33.101Z,13.33
2022-12-05T03:51:42.318Z,13.37
2022-12-05T03:55:48.907Z,13.23
2022-12-05T03:59:55.730Z,12.97
2022-12-05T04:04:03.040Z,13.60
2022-12-05T04:08:07.100Z,13.30
2022-12-05T04:12:14.992Z,13.03
2022-12-05T04:16:20.243Z,13.73
2022-12-05T04:20:27.369Z,12.73
2022-12-05T04:24:31.675Z,12.27
2022-12-05T04:28:39.175Z,11.77
2022-12-05T04:32:45.993Z,12.47
2022-12-05T04:36:54.501Z,13.33
2022-12-05T04:41:00.379Z,11.80
2022-12-05T04:45:08.041Z,11.80
2022-12-05T04:49:13.878Z,11.70
2022-12-05T04:53:19.106Z,13.23
2022-12-05T04:57:25.392Z,13.07
2022-12-05T05:01:34.964Z,13.20
2022-12-05T05:05:38.252Z,12.10
2022-12-05T05:09:40.422Z,12.37
2022-12-05T05:13:44.084Z,11.73
2022-12-05T05:17:46.773Z,11.70
2022-12-05T05:21:48.158Z,11.43
2022-12-05T05:25:52.847Z,11.17
2022-12-05T05:29:54.192Z,10.50
2022-12-05T05:33:57.473Z,12.00
2022-12-05T05:37:58.823Z,11.50
2022-12-05T05:42:00.212Z,11.17
2022-12-05T05:46:03.378Z,11.70
2022-12-05T05:50:08.060Z,12.20
2022-12-05T05:54:09.798Z,11.83
2022-12-05T05:58:11.106Z,10.67
2022-12-05T06:02:12.445Z,11.33
2022-12-05T06:06:15.420Z,11.10
2022-12-05T06:10:16.764Z,10.67
2022-12-05T06:14:18.126Z,10.90
2022-12-05T06:18:19.456Z,10.73
2022-12-05T06:22:22.143Z,12.23
2022-12-05T06:26:23.553Z,11.00
2022-12-05T06:30:24.914Z,11.07
2022-12-05T06:34:26.242Z,10.37
2022-12-05T06:38:28.915Z,10.50
2022-12-05T06:42:31.305Z,10.90
2022-12-05T06:46:32.632Z,10.83
2022-12-05T06:50:33.956Z,11.13
2022-12-05T06:54:36.708Z,10.50
2022-12-05T06:58:38.368Z,11.43
2022-12-05T07:02:39.735Z,10.67
2022-12-05T07:06:46.117Z,10.73
2022-12-05T07:10:52.441Z,10.83
2022-12-05T07:14:53.784Z,11.23
2022-12-05T07:18:55.456Z,12.67
2022-12-05T07:22:56.748Z,11.10
2022-12-05T07:26:59.422Z,10.40
2022-12-05T07:31:01.449Z,10.90
2022-12-05T07:35:02.977Z,10.70
2022-12-05T07:39:04.653Z,10.97
2022-12-05T07:43:07.385Z,11.40
2022-12-05T07:47:08.733Z,10.77
2022-12-05T07:51:10.624Z,10.80
2022-12-05T07:55:11.936Z,10.93
2022-12-05T07:59:22.656Z,10.83
2022-12-05T08:03:24.251Z,10.90
2022-12-05T08:07:25.638Z,11.53
2022-12-05T08:11:29.865Z,11.17
2022-12-05T08:15:34.437Z,10.57
2022-12-05T08:19:36.082Z,10.77
2022-12-05T08:23:38.974Z,11.13
2022-12-05T08:27:40.395Z,12.70
2022-12-05T08:31:45.433Z,13.20
2022-12-05T08:35:46.786Z,11.17
2022-12-05T08:39:48.178Z,11.50
2022-12-05T08:43:49.504Z,11.30
2022-12-05T08:47:52.196Z,10.57
2022-12-05T08:51:53.620Z,9.80
2022-12-05T08:55:55.990Z,10.27
2022-12-05T08:59:57.358Z,10.03
2022-12-05T09:04:00.943Z,9.60
2022-12-05T09:08:02.342Z,9.70
2022-12-05T09:12:04.133Z,10.27
2022-12-05T09:16:07.091Z,9.03
2022-12-05T09:20:10.948Z,9.73
2022-12-05T09:24:13.900Z,9.77
2022-12-05T09:28:15.215Z,10.07
2022-12-05T09:32:16.526Z,13.17
2022-12-05T09:36:20.884Z,12.37
2022-12-05T09:40:22.407Z,11.83
2022-12-05T09:44:38.956Z,11.37
2022-12-05T09:48:40.642Z,14.97
2022-12-05T09:52:52.993Z,14.33
2022-12-05T09:56:54.846Z,12.47
2022-12-05T10:01:02.907Z,12.50
2022-12-05T10:05:10.914Z,11.30
2022-12-05T10:09:30.566Z,12.20
2022-12-05T10:13:45.164Z,11.30
2022-12-05T10:17:50.101Z,10.37
2022-12-05T10:21:55.923Z,10.63
2022-12-05T10:26:04.252Z,9.17
2022-12-05T10:30:14.304Z,8.97
2022-12-05T10:34:24.975Z,8.40
2022-12-05T10:38:29.756Z,8.70
2022-12-05T10:42:35.765Z,10.00
2022-12-05T10:46:37.243Z,10.70
2022-12-05T10:50:39.956Z,10.53
2022-12-05T10:54:46.972Z,11.53
2022-12-05T10:58:57.721Z,11.13
2022-12-05T11:03:03.598Z,12.50
2022-12-05T11:07:05.623Z,12.73
2022-12-05T11:11:17.875Z,12.20
2022-12-05T11:15:23.809Z,12.43
2022-12-05T11:19:27.614Z,12.90
2022-12-05T11:23:29.991Z,12.80
2022-12-05T11:27:32.189Z,12.53
2022-12-05T11:31:34.992Z,12.03
2022-12-05T11:35:37.705Z,11.43
2022-12-05T11:39:39.536Z,13.13
2022-12-05T11:44:05.292Z,13.70
2022-12-05T11:48:31.142Z,13.13
2022-12-05T11:52:43.511Z,12.13
2022-12-05T11:56:51.878Z,12.87
2022-12-05T12:01:04.752Z,12.97
2022-12-05T12:05:17.820Z,13.47
2022-12-05T12:09:31.911Z,14.43
2022-12-05T12:13:51.490Z,14.27
2022-12-05T12:18:01.691Z,14.83
2022-12-05T12:22:24.491Z,14.50
2022-12-05T12:26:36.737Z,13.80
2022-12-05T12:30:58.262Z,13.53
2022-12-05T12:35:17.342Z,13.07
2022-12-05T12:39:38.454Z,12.97
2022-12-05T12:43:55.103Z,11.50
2022-12-05T12:48:09.417Z,10.73
2022-12-05T12:52:14.610Z,11.37
2022-12-05T12:56:28.779Z,11.00
2022-12-05T13:00:42.793Z,10.93
2022-12-05T13:09:27.066Z,10.03
2022-12-05T13:13:34.183Z,10.63
2022-12-05T13:17:38.121Z,10.10
2022-12-05T13:21:39.632Z,10.20
2022-12-05T13:25:43.816Z,9.57
2022-12-05T13:29:52.447Z,9.53
2022-12-05T13:33:53.787Z,9.10
2022-12-05T13:37:55.263Z,9.60
2022-12-05T13:41:57.628Z,9.43
2022-12-05T13:46:06.645Z,9.97
2022-12-05T13:50:13.972Z,10.90
2022-12-05T13:54:19.796Z,10.47
2022-12-05T13:58:41.919Z,10.97
2022-12-05T14:02:50.127Z,10.10
2022-12-05T14:06:58.341Z,11.20
2022-12-05T14:11:11.257Z,11.30
2022-12-05T14:15:39.769Z,10.00
2022-12-05T14:20:07.124Z,11.60
2022-12-05T14:24:19.158Z,11.00
2022-12-05T14:28:41.513Z,11.10
2022-12-05T14:32:43.423Z,11.57
2022-12-05T14:36:55.308Z,11.67
2022-12-05T14:41:10.988Z,11.37
2022-12-05T14:45:26.788Z,11.73
2022-12-05T14:49:49.132Z,11.63
2022-12-05T14:53:52.013Z,12.07
2022-12-05T14:57:53.616Z,12.27
2022-12-05T15:01:56.735Z,11.47
2022-12-05T15:06:03.840Z,10.47
2022-12-05T15:10:13.832Z,11.40
2022-12-05T15:14:19.508Z,11.37
2022-12-05T15:18:28.270Z,10.60
2022-12-05T15:22:34.282Z,10.90
2022-12-05T15:26:48.228Z,11.33
2022-12-05T15:30:55.930Z,12.03
2022-12-05T15:35:01.649Z,11.43
2022-12-05T15:39:16.756Z,11.40
2022-12-05T15:43:30.866Z,11.10
2022-12-05T15:47:32.205Z,11.63
2022-12-05T15:51:37.646Z,12.10
2022-12-05T15:55:43.328Z,11.23
2022-12-05T15:59:50.376Z,10.97
2022-12-05T16:03:56.132Z,10.60
2022-12-05T16:07:57.716Z,10.60
2022-12-05T16:12:01.728Z,10.60
2022-12-05T16:16:05.888Z,10.73
2022-12-05T16:20:12.152Z,11.17
2022-12-05T16:24:18.537Z,10.60
2022-12-05T16:28:21.376Z,8.77
2022-12-05T16:32:25.338Z,8.43
2022-12-05T16:36:26.686Z,8.60
2022-12-05T16:40:28.072Z,8.80
2022-12-05T16:45:00.897Z,8.93
2022-12-05T16:49:24.394Z,9.43
2022-12-05T16:53:31.625Z,9.67
2022-12-05T16:57:33.018Z,9.90
2022-12-05T17:01:38.928Z,9.93
2022-12-05T17:05:42.072Z,9.63
2022-12-05T17:09:43.507Z,10.97
2022-12-05T17:13:45.537Z,10.53
2022-12-05T17:17:46.911Z,10.60
2022-12-05T17:21:49.660Z,10.60
2022-12-05T17:25:53.006Z,9.57
2022-12-05T17:29:54.378Z,9.63
2022-12-05T17:33:55.709Z,9.23
2022-12-05T17:37:58.479Z,7.90
2022-12-05T17:41:59.826Z,8.53
2022-12-05T17:46:02.304Z,7.37
2022-12-05T17:50:04.229Z,5.80
2022-12-05T17:54:06.978Z,5.93
2022-12-05T17:58:08.423Z,7.43
2022-12-05T18:02:10.630Z,6.17
2022-12-05T18:06:12.052Z,7.10
2022-12-05T18:10:17.217Z,7.07
2022-12-05T18:14:18.674Z,7.23
2022-12-05T18:18:20.085Z,7.93
2022-12-05T18:22:21.915Z,8.47
2022-12-05T18:26:24.645Z,9.03
2022-12-05T18:30:26.067Z,8.07
2022-12-05T18:34:27.416Z,8.00
2022-12-05T18:38:28.741Z,7.93
2022-12-05T18:42:31.472Z,8.70
2022-12-05T18:46:33.050Z,8.70
2022-12-05T18:50:34.427Z,8.77
2022-12-05T18:54:35.807Z,9.70
2022-12-05T18:58:38.558Z,10.57
2022-12-05T19:02:42.745Z,10.10
2022-12-05T19:06:47.975Z,10.03
2022-12-05T19:10:49.380Z,9.97
2022-12-05T19:14:52.129Z,11.43
2022-12-05T19:18:55.325Z,11.80
2022-12-05T19:23:00.917Z,12.07
2022-12-05T19:27:02.608Z,11.93
2022-12-05T19:31:07.908Z,12.07
2022-12-05T19:35:09.248Z,12.23
2022-12-05T19:39:14.121Z,12.70
2022-12-05T19:43:15.571Z,12.30
2022-12-05T19:47:18.268Z,13.30
2022-12-05T19:51:20.255Z,13.47
2022-12-05T19:55:21.725Z,13.03
2022-12-05T19:59:23.069Z,13.10
2022-12-05T20:03:25.784Z,13.53
2022-12-05T20:07:27.202Z,12.40
2022-12-05T20:11:29.027Z,12.63
2022-12-05T20:15:30.452Z,11.97
2022-12-05T20:19:33.312Z,11.40
2022-12-05T20:23:34.913Z,11.57
2022-12-05T20:27:36.239Z,12.20
2022-12-05T20:31:39.871Z,11.53
2022-12-05T20:35:42.563Z,11.20
2022-12-05T20:39:43.910Z,12.00
2022-12-05T20:43:47.041Z,9.80
2022-12-05T20:47:48.474Z,10.03
2022-12-05T20:51:51.269Z,9.30
2022-12-05T20:55:54.680Z,9.07
2022-12-05T20:59:56.128Z,9.07
2022-12-05T21:03:57.639Z,8.97
2022-12-05T21:08:00.510Z,8.33
2022-12-05T21:12:02.418Z,8.23
2022-12-05T21:16:05.331Z,8.53
2022-12-05T21:20:07.992Z,7.83
2022-12-05T21:24:10.808Z,7.90
2022-12-05T21:28:12.349Z,8.10
2022-12-05T21:32:13.978Z,8.27
2022-12-05T21:36:15.963Z,7.17
2022-12-05T21:40:18.682Z,7.33
2022-12-05T21:44:20.156Z,7.33
2022-12-05T21:48:23.456Z,6.57
2022-12-05T21:52:24.812Z,6.40
2022-12-05T21:56:27.800Z,6.50
2022-12-05T22:00:29.254Z,6.50
2022-12-05T22:04:30.693Z,6.70
2022-12-05T22:08:33.078Z,7.03
2022-12-05T22:12:36.102Z,6.50
2022-12-05T22:16:37.512Z,6.27
2022-12-05T22:20:38.937Z,6.17
2022-12-05T22:24:40.357Z,6.17
2022-12-05T22:28:43.782Z,6.30
2022-12-05T22:32:45.139Z,6.27
2022-12-05T22:36:47.965Z,6.00
2022-12-05T22:40:53.418Z,6.33
2022-12-05T22:44:56.206Z,5.40
2022-12-05T22:48:57.666Z,6.40
2022-12-05T22:52:59.131Z,6.23
2022-12-05T22:57:00.595Z,6.27
2022-12-05T23:01:11.486Z,6.43
2022-12-05T23:05:13.045Z,6.00
2022-12-05T23:09:14.525Z,6.03
2022-12-05T23:13:16.105Z,6.03
2022-12-05T23:17:18.861Z,5.67
2022-12-05T23:21:22.505Z,5.47
2022-12-05T23:25:24.062Z,5.90
2022-12-05T23:29:25.430Z,6.20
2022-12-05T23:33:28.324Z,5.77
2022-12-05T23:37:29.865Z,6.03
2022-12-05T23:41:31.535Z,6.07
2022-12-05T23:45:32.932Z,5.23
2022-12-05T23:49:35.904Z,5.93
2022-12-05T23:53:39.934Z,6.10
2022-12-05T23:57:41.369Z,5.90
